createdAt,value
2022-11-14T00:01:12.761Z,10.17
2022-11-14T00:03:39.598Z,10.27
2022-11-14T00:06:07.715Z,9.97
2022-11-14T00:08:40.242Z,11.03
2022-11-14T00:11:07.113Z,11.03
2022-11-14T00:13:33.809Z,10.50
2022-11-14T00:16:00.478Z,10.60
2022-11-14T00:18:27.456Z,11.20
2022-11-14T00:20:54.338Z,10.07
2022-11-14T00:23:24.583Z,10.17
2022-11-14T00:25:51.323Z,10.67
2022-11-14T00:28:18.073Z,9.93
2022-11-14T00:30:48.575Z,11.23
2022-11-14T00:33:20.017Z,11.23
2022-11-14T00:35:54.984Z,11.70
2022-11-14T00:38:22.303Z,10.87
2022-11-14T00:40:49.058Z,11.70
2022-11-14T00:43:15.857Z,11.50
2022-11-14T00:45:46.074Z,10.53
2022-11-14T00:48:13.407Z,11.00
2022-11-14T00:50:40.860Z,10.97
2022-11-14T00:53:07.873Z,11.60
2022-11-14T00:55:34.883Z,10.83
2022-11-14T00:58:01.607Z,11.20
2022-11-14T01:00:31.316Z,11.23
2022-11-14T01:02:58.392Z,10.00
2022-11-14T01:05:25.756Z,9.67
2022-11-14T01:07:52.587Z,10.10
2022-11-14T01:10:19.753Z,9.73
2022-11-14T01:12:46.744Z,8.90
2022-11-14T01:15:13.695Z,9.63
2022-11-14T01:17:40.419Z,9.33
2022-11-14T01:20:08.352Z,9.57
2022-11-14T01:22:35.109Z,8.67
2022-11-14T01:25:01.781Z,9.57
2022-11-14T01:27:33.865Z,9.00
2022-11-14T01:30:00.645Z,8.50
2022-11-14T01:32:27.880Z,8.63
2022-11-14T01:34:54.848Z,8.17
2022-11-14T01:37:21.616Z,9.67
2022-11-14T01:39:48.273Z,8.90
2022-11-14T01:42:17.355Z,9.07
2022-11-14T01:44:50.034Z,9.00
2022-11-14T01:47:23.918Z,9.70
2022-11-14T01:49:54.775Z,9.10
2022-11-14T01:52:28.894Z,9.50
2022-11-14T01:54:59.024Z,8.97
2022-11-14T01:57:30.942Z,9.67
2022-11-14T02:00:02.096Z,9.37
2022-11-14T02:02:28.953Z,9.20
2022-11-14T02:05:06.526Z,9.93
2022-11-14T02:07:37.921Z,9.93
2022-11-14T02:10:09.538Z,9.50
2022-11-14T02:12:37.353Z,10.20
2022-11-14T02:15:04.453Z,10.17
2022-11-14T02:17:32.434Z,10.00
2022-11-14T02:20:11.152Z,10.63
2022-11-14T02:22:39.462Z,10.40
2022-11-14T02:25:07.827Z,10.50
2022-11-14T02:27:36.272Z,10.43
2022-11-14T02:30:15.610Z,10.90
2022-11-14T02:33:09.306Z,10.10
2022-11-14T02:35:29.137Z,11.17
2022-11-14T02:37:55.950Z,11.00
2022-11-14T02:40:22.626Z,10.87
2022-11-14T02:42:49.414Z,10.43
2022-11-14T02:45:16.324Z,12.07
2022-11-14T02:47:43.065Z,10.57
2022-11-14T02:50:10.503Z,10.30
2022-11-14T02:52:37.182Z,10.63
2022-11-14T02:55:05.323Z,11.63
2022-11-14T02:57:32.064Z,11.60
2022-11-14T02:59:58.855Z,11.20
2022-11-14T03:02:28.294Z,10.50
2022-11-14T03:04:55.061Z,11.73
2022-11-14T03:07:24.887Z,10.77
2022-11-14T03:09:51.624Z,10.47
2022-11-14T03:12:20.018Z,11.17
2022-11-14T03:14:46.868Z,11.30
2022-11-14T03:17:13.655Z,10.70
2022-11-14T03:19:40.458Z,10.93
2022-11-14T03:22:07.399Z,10.93
2022-11-14T03:24:34.216Z,10.83
2022-11-14T03:27:00.979Z,11.27
2022-11-14T03:29:27.804Z,11.23
2022-11-14T03:31:54.495Z,9.87
2022-11-14T03:34:21.167Z,11.47
2022-11-14T03:36:47.836Z,10.73
2022-11-14T03:39:14.653Z,11.33
2022-11-14T03:41:41.322Z,10.70
2022-11-14T03:44:08.018Z,11.50
2022-11-14T03:46:34.760Z,10.80
2022-11-14T03:49:01.501Z,11.87
2022-11-14T03:51:28.186Z,11.00
2022-11-14T03:53:54.849Z,10.67
2022-11-14T03:56:24.705Z,11.27
2022-11-14T03:58:51.372Z,11.20
2022-11-14T04:01:18.084Z,10.83
2022-11-14T04:03:50.605Z,10.73
2022-11-14T04:06:17.456Z,11.13
2022-11-14T04:08:44.135Z,10.77
2022-11-14T04:11:10.850Z,11.50
2022-11-14T04:13:37.544Z,12.17
2022-11-14T04:16:04.550Z,11.30
2022-11-14T04:18:38.672Z,12.37
2022-11-14T04:21:05.542Z,11.43
2022-11-14T04:23:39.548Z,11.43
2022-11-14T04:26:06.296Z,12.37
2022-11-14T04:28:33.194Z,12.23
2022-11-14T04:31:00.420Z,12.20
2022-11-14T04:33:27.210Z,11.67
2022-11-14T04:35:53.965Z,12.07
2022-11-14T04:38:20.727Z,12.30
2022-11-14T04:40:56.259Z,12.23
2022-11-14T04:43:22.981Z,12.50
2022-11-14T04:45:49.764Z,12.07
2022-11-14T04:48:16.573Z,13.30
2022-11-14T04:50:44.929Z,13.37
2022-11-14T04:53:14.680Z,12.30
2022-11-14T04:55:41.402Z,12.80
2022-11-14T04:58:10.361Z,12.37
2022-11-14T05:00:37.062Z,12.63
2022-11-14T05:03:03.780Z,13.27
2022-11-14T05:05:31.980Z,12.17
2022-11-14T05:07:59.153Z,11.77
2022-11-14T05:10:25.886Z,12.87
2022-11-14T05:12:55.740Z,12.47
2022-11-14T05:15:22.634Z,12.23
2022-11-14T05:17:49.414Z,12.43
2022-11-14T05:20:16.720Z,13.00
2022-11-14T05:22:43.592Z,12.63
2022-11-14T05:25:10.447Z,12.80
2022-11-14T05:27:37.301Z,12.10
2022-11-14T05:30:04.417Z,13.30
2022-11-14T05:32:31.087Z,13.23
2022-11-14T05:34:57.853Z,12.20
2022-11-14T05:37:24.544Z,12.93
2022-11-14T05:39:51.306Z,13.47
2022-11-14T05:42:18.015Z,14.10
2022-11-14T05:44:44.679Z,12.50
2022-11-14T05:47:11.347Z,12.90
2022-11-14T05:49:38.059Z,13.90
2022-11-14T05:52:05.066Z,14.27
2022-11-14T05:54:31.749Z,13.87
2022-11-14T05:56:58.429Z,14.73
2022-11-14T05:59:25.218Z,14.43
2022-11-14T06:01:51.916Z,12.87
2022-11-14T06:04:18.799Z,12.73
2022-11-14T06:06:45.501Z,12.63
2022-11-14T06:09:12.263Z,13.07
2022-11-14T06:11:43.431Z,13.07
2022-11-14T06:14:13.048Z,11.43
2022-11-14T06:16:39.817Z,12.63
2022-11-14T06:19:06.700Z,12.93
2022-11-14T06:21:33.905Z,12.60
2022-11-14T06:24:00.598Z,13.73
2022-11-14T06:26:32.794Z,12.87
2022-11-14T06:29:00.686Z,13.43
2022-11-14T06:31:28.010Z,12.97
2022-11-14T06:33:54.945Z,13.33
2022-11-14T06:36:21.623Z,13.40
2022-11-14T06:38:48.337Z,12.57
2022-11-14T06:41:17.465Z,13.67
2022-11-14T06:43:47.175Z,14.10
2022-11-14T06:46:19.946Z,13.43
2022-11-14T06:48:49.094Z,13.53
2022-11-14T06:51:17.424Z,13.20
2022-11-14T06:53:44.631Z,13.03
2022-11-14T06:56:13.337Z,12.73
2022-11-14T06:58:42.471Z,13.57
2022-11-14T07:01:13.311Z,12.87
2022-11-14T07:03:41.178Z,13.60
2022-11-14T07:06:09.494Z,13.17
2022-11-14T07:08:36.764Z,12.77
2022-11-14T07:11:06.099Z,12.83
2022-11-14T07:13:33.656Z,12.37
2022-11-14T07:16:00.530Z,12.47
2022-11-14T07:18:29.667Z,13.47
2022-11-14T07:21:06.714Z,12.70
2022-11-14T07:23:34.839Z,13.23
2022-11-14T07:26:03.369Z,12.37
2022-11-14T07:28:30.794Z,13.40
2022-11-14T07:31:08.149Z,13.77
2022-11-14T07:33:35.456Z,13.07
2022-11-14T07:36:02.521Z,13.70
2022-11-14T07:38:34.131Z,13.57
2022-11-14T07:41:09.759Z,13.20
2022-11-14T07:43:36.863Z,12.83
2022-11-14T07:46:06.290Z,14.23
2022-11-14T07:48:34.068Z,13.17
2022-11-14T07:51:02.324Z,13.20
2022-11-14T07:53:29.780Z,12.20
2022-11-14T07:56:04.237Z,12.13
2022-11-14T07:58:33.727Z,11.60
2022-11-14T08:01:02.333Z,13.33
2022-11-14T08:03:29.531Z,12.37
2022-11-14T08:06:06.191Z,13.80
2022-11-14T08:08:33.594Z,13.13
2022-11-14T08:11:03.372Z,12.60
2022-11-14T08:13:33.967Z,13.50
2022-11-14T08:16:12.905Z,12.87
2022-11-14T08:18:42.692Z,14.77
2022-11-14T08:21:09.583Z,16.10
2022-11-14T08:23:36.548Z,14.97
2022-11-14T08:26:03.510Z,15.87
2022-11-14T08:28:30.606Z,13.93
2022-11-14T08:31:02.244Z,13.00
2022-11-14T08:33:29.638Z,11.40
2022-11-14T08:35:56.502Z,10.90
2022-11-14T08:38:23.265Z,11.07
2022-11-14T08:40:50.072Z,10.03
2022-11-14T08:43:16.851Z,8.63
2022-11-14T08:45:43.758Z,9.53
2022-11-14T08:48:11.387Z,8.77
2022-11-14T08:50:38.168Z,8.87
2022-11-14T08:53:04.866Z,8.30
2022-11-14T08:55:31.730Z,8.60
2022-11-14T08:57:58.567Z,8.40
2022-11-14T09:00:25.504Z,8.73
2022-11-14T09:02:52.367Z,7.97
2022-11-14T09:05:19.294Z,8.50
2022-11-14T09:07:46.020Z,8.13
2022-11-14T09:10:12.783Z,8.17
2022-11-14T09:12:39.578Z,8.90
2022-11-14T09:15:06.767Z,8.83
2022-11-14T09:17:33.682Z,7.80
2022-11-14T09:20:00.362Z,8.40
2022-11-14T09:22:27.068Z,8.80
2022-11-14T09:24:54.280Z,8.23
2022-11-14T09:27:21.109Z,8.47
2022-11-14T09:29:47.881Z,8.90
2022-11-14T09:32:16.424Z,8.27
2022-11-14T09:34:45.400Z,7.90
2022-11-14T09:37:12.175Z,8.13
2022-11-14T09:39:40.662Z,7.83
2022-11-14T09:42:32.252Z,7.80
2022-11-14T09:45:04.901Z,8.30
2022-11-14T09:47:46.703Z,7.90
2022-11-14T09:50:34.031Z,8.50
2022-11-14T09:53:10.380Z,7.83
2022-11-14T09:55:37.633Z,7.70
2022-11-14T09:58:06.359Z,8.00
2022-11-14T10:01:06.394Z,8.90
2022-11-14T10:03:57.734Z,8.43
2022-11-14T10:06:35.605Z,7.63
2022-11-14T10:09:21.558Z,8.43
2022-11-14T10:12:09.999Z,9.03
2022-11-14T10:14:55.605Z,8.23
2022-11-14T10:17:41.187Z,8.50
2022-11-14T10:20:21.745Z,8.67
2022-11-14T10:23:23.811Z,8.53
2022-11-14T10:26:08.451Z,9.57
2022-11-14T10:28:59.589Z,9.33
2022-11-14T10:31:53.953Z,9.33
2022-11-14T10:34:31.612Z,9.60
2022-11-14T10:37:12.158Z,10.27
2022-11-14T10:39:51.351Z,10.03
2022-11-14T10:42:32.177Z,10.57
2022-11-14T10:45:04.799Z,10.03
2022-11-14T10:47:39.837Z,10.30
2022-11-14T10:50:21.634Z,10.40
2022-11-14T10:52:52.144Z,10.13
2022-11-14T10:55:24.884Z,10.50
2022-11-14T10:58:11.068Z,10.67
2022-11-14T11:00:40.492Z,11.43
2022-11-14T11:03:07.653Z,10.53
2022-11-14T11:05:52.465Z,10.63
2022-11-14T11:08:44.137Z,10.70
2022-11-14T11:11:32.157Z,11.20
2022-11-14T11:14:01.221Z,10.57
2022-11-14T11:16:29.703Z,10.90
2022-11-14T11:19:25.646Z,11.33
2022-11-14T11:21:53.358Z,11.10
2022-11-14T11:24:34.039Z,11.10
2022-11-14T11:27:28.442Z,11.50
2022-11-14T11:30:07.410Z,11.40
2022-11-14T11:32:34.278Z,12.07
2022-11-14T11:35:03.960Z,11.47
2022-11-14T11:37:46.395Z,11.77
2022-11-14T11:40:25.400Z,11.77
2022-11-14T11:43:37.366Z,12.47
2022-11-14T11:45:59.702Z,13.20
2022-11-14T11:48:39.722Z,12.40
2022-11-14T11:51:14.049Z,12.17
2022-11-14T11:53:44.997Z,11.60
2022-11-14T11:56:26.562Z,13.00
2022-11-14T11:59:04.200Z,12.60
2022-11-14T12:01:30.965Z,12.30
2022-11-14T12:03:58.655Z,12.60
2022-11-14T12:06:28.614Z,13.87
2022-11-14T12:08:58.181Z,12.67
2022-11-14T12:11:27.936Z,13.53
2022-11-14T12:13:54.694Z,15.07
2022-11-14T12:16:49.001Z,15.80
2022-11-14T12:19:29.756Z,16.63
2022-11-14T12:22:07.620Z,17.13
2022-11-14T12:24:37.573Z,19.43
2022-11-14T12:27:51.981Z,21.60
2022-11-14T12:30:24.409Z,20.67
2022-11-14T12:33:17.138Z,22.60
2022-11-14T12:36:02.562Z,23.93
2022-11-14T12:38:42.198Z,24.43
2022-11-14T12:41:10.090Z,22.80
2022-11-14T12:43:43.536Z,22.73
2022-11-14T12:46:13.076Z,24.13
2022-11-14T12:49:01.715Z,24.37
2022-11-14T12:51:28.608Z,23.90
2022-11-14T12:53:58.792Z,23.93
2022-11-14T12:56:31.401Z,23.03
2022-11-14T12:59:28.330Z,24.60
2022-11-14T13:02:39.390Z,23.43
2022-11-14T13:05:42.499Z,21.70
2022-11-14T13:08:57.162Z,21.10
2022-11-14T13:11:58.003Z,21.30
2022-11-14T13:14:43.770Z,21.03
2022-11-14T13:17:34.961Z,20.23
2022-11-14T13:20:41.901Z,19.93
2022-11-14T13:23:26.874Z,20.13
2022-11-14T13:26:12.243Z,19.43
2022-11-14T13:28:46.482Z,18.63
2022-11-14T13:31:16.284Z,18.13
2022-11-14T13:33:43.714Z,19.57
2022-11-14T13:36:22.329Z,19.50
2022-11-14T13:39:10.257Z,17.77
2022-11-14T13:41:49.758Z,19.17
2022-11-14T13:44:40.286Z,18.47
2022-11-14T13:47:29.158Z,19.20
2022-11-14T13:49:58.949Z,17.73
2022-11-14T13:52:32.509Z,17.80
2022-11-14T13:55:00.160Z,17.93
2022-11-14T13:57:42.371Z,18.57
2022-11-14T14:00:19.648Z,18.37
2022-11-14T14:03:34.269Z,18.10
2022-11-14T14:06:30.306Z,16.50
2022-11-14T14:08:57.035Z,17.40
2022-11-14T14:11:47.112Z,16.73
2022-11-14T14:14:45.937Z,17.87
2022-11-14T14:17:31.277Z,17.80
2022-11-14T14:20:20.017Z,18.23
2022-11-14T14:22:59.618Z,16.90
2022-11-14T14:25:56.154Z,17.53
2022-11-14T14:29:06.271Z,17.43
2022-11-14T14:31:41.956Z,16.60
2022-11-14T14:34:28.074Z,17.17
2022-11-14T14:36:56.409Z,17.37
2022-11-14T14:39:25.494Z,17.83
2022-11-14T14:41:57.392Z,18.13
2022-11-14T14:44:40.065Z,18.27
2022-11-14T14:47:42.163Z,17.80
2022-11-14T14:50:18.027Z,17.37
2022-11-14T14:52:44.975Z,18.23
2022-11-14T14:55:28.291Z,18.03
2022-11-14T14:57:55.323Z,17.63
2022-11-14T15:00:26.363Z,17.90
2022-11-14T15:02:55.567Z,18.37
2022-11-14T15:05:27.652Z,18.10
2022-11-14T15:08:00.899Z,18.47
2022-11-14T15:10:31.271Z,19.23
2022-11-14T15:12:58.910Z,18.77
2022-11-14T15:15:30.391Z,19.00
2022-11-14T15:17:59.326Z,18.90
2022-11-14T15:20:28.721Z,19.03
2022-11-14T15:23:10.712Z,19.37
2022-11-14T15:25:38.072Z,19.30
2022-11-14T15:28:13.236Z,20.57
2022-11-14T15:30:40.090Z,20.53
2022-11-14T15:33:29.367Z,20.47
2022-11-14T15:36:14.868Z,19.33
2022-11-14T15:39:02.241Z,18.50
2022-11-14T15:41:30.497Z,18.57
2022-11-14T15:44:05.685Z,19.93
2022-11-14T15:46:46.126Z,20.17
2022-11-14T15:49:27.340Z,18.93
2022-11-14T15:52:03.550Z,18.90
2022-11-14T15:54:32.938Z,19.37
2022-11-14T15:57:12.225Z,20.33
2022-11-14T15:59:39.121Z,19.77
2022-11-14T16:02:19.507Z,21.00
2022-11-14T16:04:47.952Z,20.07
2022-11-14T16:07:16.743Z,19.00
2022-11-14T16:09:43.921Z,20.00
2022-11-14T16:12:10.836Z,20.40
2022-11-14T16:14:37.639Z,20.63
2022-11-14T16:17:15.644Z,20.73
2022-11-14T16:19:42.792Z,21.00
2022-11-14T16:22:13.071Z,19.80
2022-11-14T16:24:39.965Z,21.07
2022-11-14T16:27:06.950Z,21.03
2022-11-14T16:29:33.861Z,21.87
2022-11-14T16:32:00.761Z,24.67
2022-11-14T16:34:28.013Z,23.23
2022-11-14T16:36:59.899Z,21.00
2022-11-14T16:39:27.126Z,20.57
2022-11-14T16:41:54.011Z,20.67
2022-11-14T16:44:20.756Z,23.03
2022-11-14T16:46:50.634Z,24.53
2022-11-14T16:49:21.305Z,22.83
2022-11-14T16:51:50.260Z,21.97
2022-11-14T16:54:21.029Z,21.53
2022-11-14T16:56:48.397Z,21.40
2022-11-14T16:59:15.183Z,19.57
2022-11-14T17:01:45.323Z,21.17
2022-11-14T17:04:12.617Z,17.90
2022-11-14T17:06:39.696Z,19.67
2022-11-14T17:09:06.487Z,19.00
2022-11-14T17:11:33.294Z,18.23
2022-11-14T17:13:59.954Z,20.30
2022-11-14T17:16:29.866Z,19.93
2022-11-14T17:18:56.690Z,19.80
2022-11-14T17:21:23.733Z,19.00
2022-11-14T17:24:01.638Z,19.10
2022-11-14T17:26:29.099Z,19.00
2022-11-14T17:28:56.125Z,17.63
2022-11-14T17:31:23.021Z,17.63
2022-11-14T17:33:54.317Z,15.67
2022-11-14T17:36:22.726Z,16.63
2022-11-14T17:38:49.635Z,15.33
2022-11-14T17:41:16.326Z,15.23
2022-11-14T17:43:43.700Z,14.63
2022-11-14T17:46:15.843Z,14.67
2022-11-14T17:48:44.547Z,14.30
2022-11-14T17:51:16.060Z,13.47
2022-11-14T17:53:43.473Z,14.27
2022-11-14T17:56:17.543Z,13.53
2022-11-14T17:58:45.472Z,14.80
2022-11-14T18:01:15.140Z,13.87
2022-11-14T18:03:42.316Z,13.27
2022-11-14T18:06:11.115Z,12.43
2022-11-14T18:08:38.508Z,13.50
2022-11-14T18:11:08.306Z,12.40
2022-11-14T18:13:35.056Z,12.93
2022-11-14T18:16:08.194Z,13.40
2022-11-14T18:18:36.413Z,13.13
2022-11-14T18:21:15.176Z,13.60
2022-11-14T18:23:42.566Z,11.90
2022-11-14T18:26:10.350Z,12.27
2022-11-14T18:28:37.217Z,12.30
2022-11-14T18:31:04.673Z,11.87
2022-11-14T18:33:32.478Z,11.83
2022-11-14T18:36:00.609Z,11.70
2022-11-14T18:38:31.546Z,11.50
2022-11-14T18:41:00.859Z,11.27
2022-11-14T18:43:29.775Z,10.77
2022-11-14T18:45:56.926Z,10.80
2022-11-14T18:48:25.035Z,11.80
2022-11-14T18:50:51.736Z,10.80
2022-11-14T18:53:18.760Z,10.70
2022-11-14T18:55:45.744Z,10.13
2022-11-14T18:58:13.780Z,10.27
2022-11-14T19:00:45.222Z,11.83
2022-11-14T19:03:14.240Z,11.73
2022-11-14T19:05:41.082Z,12.40
2022-11-14T19:08:10.491Z,11.83
2022-11-14T19:10:37.249Z,12.43
2022-11-14T19:13:03.964Z,11.80
2022-11-14T19:15:34.478Z,12.90
2022-11-14T19:18:01.316Z,11.97
2022-11-14T19:20:27.990Z,10.77
2022-11-14T19:22:54.792Z,11.53
2022-11-14T19:25:21.632Z,10.87
2022-11-14T19:27:54.398Z,10.23
2022-11-14T19:30:21.126Z,10.13
2022-11-14T19:32:47.849Z,9.97
2022-11-14T19:35:19.811Z,10.73
2022-11-14T19:37:47.371Z,10.30
2022-11-14T19:40:14.484Z,10.37
2022-11-14T19:42:41.229Z,9.43
2022-11-14T19:45:08.395Z,9.97
2022-11-14T19:47:35.089Z,9.63
2022-11-14T19:50:01.919Z,9.23
2022-11-14T19:52:28.655Z,10.20
2022-11-14T19:54:55.367Z,10.03
2022-11-14T19:57:22.142Z,11.03
2022-11-14T19:59:49.024Z,11.40
2022-11-14T20:02:15.834Z,11.33
2022-11-14T20:04:43.707Z,11.70
2022-11-14T20:07:10.454Z,11.33
2022-11-14T20:09:37.215Z,12.10
2022-11-14T20:12:04.078Z,11.27
2022-11-14T20:14:30.965Z,13.23
2022-11-14T20:16:57.632Z,12.00
2022-11-14T20:19:24.537Z,12.07
2022-11-14T20:21:51.307Z,12.80
2022-11-14T20:24:21.522Z,11.23
2022-11-14T20:26:48.709Z,12.17
2022-11-14T20:29:15.547Z,12.63
2022-11-14T20:31:42.241Z,11.97
2022-11-14T20:34:10.527Z,11.93
2022-11-14T20:36:57.021Z,11.30
2022-11-14T20:39:24.103Z,11.77
2022-11-14T20:41:50.902Z,12.30
2022-11-14T20:44:18.922Z,12.57
2022-11-14T20:46:45.643Z,11.83
2022-11-14T20:49:12.452Z,12.60
2022-11-14T20:51:39.215Z,11.60
2022-11-14T20:54:09.148Z,12.07
2022-11-14T20:56:35.955Z,12.23
2022-11-14T20:59:07.251Z,12.03
2022-11-14T21:01:35.214Z,13.53
2022-11-14T21:04:04.748Z,11.50
2022-11-14T21:06:31.510Z,12.50
2022-11-14T21:08:58.216Z,12.80
2022-11-14T21:11:24.933Z,12.73
2022-11-14T21:13:57.730Z,13.13
2022-11-14T21:16:44.891Z,12.53
2022-11-14T21:19:11.652Z,12.67
2022-11-14T21:21:38.942Z,13.63
2022-11-14T21:24:06.339Z,12.70
2022-11-14T21:26:36.514Z,12.40
2022-11-14T21:29:11.138Z,12.73
2022-11-14T21:31:44.589Z,13.47
2022-11-14T21:34:14.316Z,13.40
2022-11-14T21:36:46.248Z,13.13
2022-11-14T21:39:17.564Z,13.23
2022-11-14T21:41:45.723Z,12.47
2022-11-14T21:44:15.744Z,12.50
2022-11-14T21:46:42.999Z,13.23
2022-11-14T21:49:10.386Z,14.53
2022-11-14T21:51:37.175Z,12.53
2022-11-14T21:54:05.152Z,13.47
2022-11-14T21:56:34.026Z,14.70
2022-11-14T21:59:15.008Z,13.53
2022-11-14T22:02:03.309Z,13.70
2022-11-14T22:04:31.411Z,14.27
2022-11-14T22:06:58.885Z,13.93
2022-11-14T22:09:27.991Z,14.33
2022-11-14T22:11:55.330Z,15.33
2022-11-14T22:14:22.331Z,14.03
2022-11-14T22:16:49.099Z,14.80
2022-11-14T22:19:15.905Z,16.10
2022-11-14T22:21:42.817Z,15.80
2022-11-14T22:24:09.476Z,16.10
2022-11-14T22:26:39.885Z,15.30
2022-11-14T22:29:07.757Z,14.00
2022-11-14T22:31:35.112Z,14.23
2022-11-14T22:34:05.710Z,14.50
2022-11-14T22:36:33.294Z,15.73
2022-11-14T22:39:00.229Z,15.43
2022-11-14T22:41:32.729Z,15.53
2022-11-14T22:44:00.257Z,16.10
2022-11-14T22:46:27.677Z,16.17
2022-11-14T22:48:55.081Z,16.03
2022-11-14T22:51:24.310Z,14.90
2022-11-14T22:53:53.403Z,14.67
2022-11-14T22:56:22.520Z,15.50
2022-11-14T22:58:49.249Z,15.70
2022-11-14T23:01:23.087Z,16.97
2022-11-14T23:03:55.246Z,17.13
2022-11-14T23:06:23.247Z,16.67
2022-11-14T23:08:50.962Z,16.23
2022-11-14T23:11:24.112Z,16.00
2022-11-14T23:13:53.279Z,15.40
2022-11-14T23:16:25.427Z,17.97
2022-11-14T23:18:55.422Z,15.30
2022-11-14T23:21:31.266Z,16.53
2022-11-14T23:24:00.597Z,16.47
2022-11-14T23:26:28.912Z,16.13
2022-11-14T23:28:56.362Z,16.23
2022-11-14T23:31:24.087Z,17.40
2022-11-14T23:33:53.280Z,17.63
2022-11-14T23:36:20.192Z,16.57
2022-11-14T23:38:47.304Z,17.93
2022-11-14T23:41:28.059Z,17.93
2022-11-14T23:43:54.994Z,18.10
2022-11-14T23:46:21.755Z,17.60
2022-11-14T23:48:48.875Z,17.50
2022-11-14T23:51:15.660Z,18.80
2022-11-14T23:53:42.447Z,18.30
2022-11-14T23:56:13.120Z,17.37
2022-11-14T23:58:40.641Z,18.77
